Time;durP1;ratioP1;P1;durP2;ratioP2;P2;SDS_P1;SDS_P2;PMS_P1;PMS_P2;Temp;Humidity;BMP_temperature;BMP_pressure;BME280_temperature;BME280_humidity;BME280_pressure;Samples;Min_cycle;Max_cycle;Signal;HPM_P1;HPM_P2
2023/08/09 00:01:56;;;;;;;5.43;2.63;;;12.30;99.90;;;;;;8384096;28;20025;-81
2023/08/09 00:05:56;;;;;;;4.10;2.00;;;12.50;99.90;;;;;;8383569;28;20025;-81
2023/08/09 00:09:57;;;;;;;3.88;1.95;;;12.60;99.90;;;;;;8413946;23;20043;-81
2023/08/09 00:13:57;;;;;;;3.40;1.90;;;12.60;99.90;;;;;;8404315;28;20069;-80
2023/08/09 00:17:58;;;;;;;3.40;2.20;;;12.70;99.90;;;;;;8410005;28;20036;-81
2023/08/09 00:21:58;;;;;;;5.32;2.00;;;13.00;99.90;;;;;;8370929;28;20021;-81
2023/08/09 00:26:00;;;;;;;3.67;2.17;;;13.20;99.90;;;;;;8362691;28;20021;-80
2023/08/09 00:30:01;;;;;;;5.47;2.40;;;13.50;99.90;;;;;;8394440;28;20028;-81
2023/08/09 00:34:02;;;;;;;2.55;1.60;;;13.50;99.90;;;;;;8372469;28;20453;-81
2023/08/09 00:38:03;;;;;;;7.00;2.05;;;13.50;99.90;;;;;;8366619;28;20036;-81
2023/08/09 00:42:04;;;;;;;5.65;2.22;;;13.50;99.90;;;;;;8377054;28;20568;-80
2023/08/09 00:46:05;;;;;;;3.33;2.20;;;13.40;99.90;;;;;;8364114;28;20447;-79
2023/08/09 00:50:06;;;;;;;4.85;1.75;;;13.50;99.90;;;;;;8378324;28;20030;-81
2023/08/09 00:54:06;;;;;;;4.97;1.90;;;13.60;99.90;;;;;;8369005;28;20017;-80
2023/08/09 00:58:07;;;;;;;4.50;2.38;;;13.70;99.90;;;;;;8387928;28;20075;-80
2023/08/09 01:02:11;;;;;;;3.83;1.70;;;13.70;99.90;;;;;;8386411;28;20021;-80
2023/08/09 01:06:14;;;;;;;2.75;1.85;;;13.60;99.90;;;;;;8370108;28;20017;-80
2023/08/09 01:10:22;;;;;;;2.83;2.03;;;13.50;99.90;;;;;;8365880;28;20025;-80
2023/08/09 01:14:25;;;;;;;5.32;2.15;;;13.50;99.90;;;;;;8354411;28;20021;-80
2023/08/09 01:18:27;;;;;;;3.65;2.22;;;13.40;99.90;;;;;;8371771;28;20035;-81
2023/08/09 01:22:34;;;;;;;2.92;2.17;;;13.50;99.90;;;;;;8397763;28;20053;-81
2023/08/09 01:26:39;;;;;;;3.75;2.10;;;13.50;99.90;;;;;;8369740;28;20116;-81
2023/08/09 01:30:39;;;;;;;4.07;2.35;;;13.40;99.90;;;;;;8369078;28;20036;-80
2023/08/09 01:34:40;;;;;;;3.53;1.98;;;13.40;99.90;;;;;;8369817;28;20032;-80
2023/08/09 01:39:03;;;;;;;2.65;1.90;;;13.60;99.90;;;;;;8359717;28;20496;-81
2023/08/09 01:43:04;;;;;;;2.78;1.83;;;13.60;99.90;;;;;;8377958;28;20033;-81
2023/08/09 01:47:05;;;;;;;3.33;1.80;;;13.70;99.90;;;;;;8379764;28;20021;-81
2023/08/09 01:51:06;;;;;;;2.50;1.60;;;13.60;99.90;;;;;;8368160;28;20481;-81
2023/08/09 01:55:06;;;;;;;3.72;1.98;;;13.60;99.90;;;;;;8370740;28;20031;-81
2023/08/09 01:59:09;;;;;;;2.47;1.90;;;13.80;99.90;;;;;;8355484;28;20017;-81
2023/08/09 02:03:09;;;;;;;2.72;1.80;;;13.90;99.90;;;;;;8382192;28;20020;-81
2023/08/09 02:07:10;;;;;;;2.10;1.60;;;14.10;99.90;;;;;;8370653;28;20025;-80
2023/08/09 02:11:10;;;;;;;2.85;1.63;;;14.10;99.90;;;;;;8389186;28;20397;-81
2023/08/09 02:15:11;;;;;;;4.72;2.20;;;14.40;99.90;;;;;;8370903;28;20512;-81
2023/08/09 02:19:11;;;;;;;3.47;1.90;;;14.40;99.90;;;;;;8378200;28;20543;-82
2023/08/09 02:23:12;;;;;;;2.92;1.50;;;14.60;99.90;;;;;;8369457;28;20474;-81
2023/08/09 02:27:13;;;;;;;3.90;1.60;;;14.50;99.90;;;;;;8377224;28;20393;-80
2023/08/09 02:31:13;;;;;;;2.28;1.50;;;14.50;99.90;;;;;;8374746;28;20049;-80
2023/08/09 02:35:15;;;;;;;3.08;1.80;;;14.40;99.90;;;;;;8363601;28;20027;-81
2023/08/09 02:39:15;;;;;;;5.32;1.60;;;14.50;99.90;;;;;;8369804;28;20077;-81
2023/08/09 02:43:17;;;;;;;2.72;1.90;;;14.40;99.90;;;;;;8360258;28;20493;-81
2023/08/09 02:47:18;;;;;;;5.00;1.95;;;14.40;99.90;;;;;;8361432;28;20096;-81
2023/08/09 02:51:18;;;;;;;2.15;1.52;;;14.70;99.90;;;;;;8353405;28;20401;-81
2023/08/09 02:55:19;;;;;;;6.32;1.88;;;14.60;99.90;;;;;;8367328;28;20051;-81
2023/08/09 02:59:20;;;;;;;2.00;1.55;;;14.90;99.90;;;;;;8389242;28;20063;-81
2023/08/09 03:03:20;;;;;;;2.88;1.70;;;14.70;99.90;;;;;;8365387;28;20029;-81
2023/08/09 03:07:21;;;;;;;2.08;1.58;;;14.70;99.90;;;;;;8371809;28;20035;-80
2023/08/09 03:11:23;;;;;;;2.90;1.70;;;14.70;99.90;;;;;;8361467;28;20021;-80
2023/08/09 03:15:24;;;;;;;3.38;1.70;;;14.50;99.90;;;;;;8386742;28;20605;-80
2023/08/09 03:19:24;;;;;;;3.80;2.00;;;14.50;99.90;;;;;;8356931;28;20086;-80
2023/08/09 03:23:25;;;;;;;4.28;1.85;;;14.40;99.90;;;;;;8363557;28;20056;-81
2023/08/09 03:27:26;;;;;;;3.65;1.60;;;14.10;99.90;;;;;;8358314;28;20037;-80
2023/08/09 03:31:26;;;;;;;111.88;5.45;;;14.00;99.90;;;;;;8363270;28;20166;-80
2023/08/09 03:35:27;;;;;;;4.68;2.30;;;13.90;99.90;;;;;;8355521;28;20044;-80
2023/08/09 03:39:27;;;;;;;2.90;2.03;;;13.80;99.90;;;;;;8381336;28;20036;-80
2023/08/09 03:43:28;;;;;;;5.28;2.20;;;13.90;99.90;;;;;;8352032;28;20033;-80
2023/08/09 03:47:28;;;;;;;3.90;2.22;;;13.70;99.90;;;;;;8365810;28;20059;-80
2023/08/09 03:51:29;;;;;;;4.38;2.35;;;13.90;99.90;;;;;;8348118;28;20366;-79
2023/08/09 03:55:30;;;;;;;4.03;2.20;;;13.70;99.90;;;;;;8354132;28;20025;-80
2023/08/09 03:59:31;;;;;;;4.78;2.65;;;13.60;99.90;;;;;;8383673;28;20519;-79
2023/08/09 04:03:32;;;;;;;4.28;2.30;;;13.50;99.90;;;;;;8384114;28;20024;-78
2023/08/09 04:07:32;;;;;;;3.88;2.35;;;13.50;99.90;;;;;;8386365;28;20134;-80
2023/08/09 04:11:33;;;;;;;5.05;2.22;;;13.30;99.90;;;;;;8389634;28;20114;-79
2023/08/09 04:15:34;;;;;;;4.13;2.92;;;13.30;99.90;;;;;;8377996;28;20021;-79
2023/08/09 04:19:34;;;;;;;3.78;2.50;;;13.20;99.90;;;;;;8364802;28;20016;-79
2023/08/09 04:23:35;;;;;;;3.55;2.80;;;13.30;99.90;;;;;;8377476;28;20039;-79
2023/08/09 04:27:36;;;;;;;4.30;2.65;;;13.20;99.90;;;;;;8362396;28;20733;-80
2023/08/09 04:31:37;;;;;;;7.07;2.92;;;13.10;99.90;;;;;;8369490;28;20033;-80
2023/08/09 04:35:38;;;;;;;7.60;3.10;;;13.10;99.90;;;;;;8358703;28;20021;-79
2023/08/09 04:39:38;;;;;;;5.05;2.60;;;13.10;99.90;;;;;;8356950;28;20032;-80
2023/08/09 04:43:42;;;;;;;5.38;2.65;;;13.20;99.90;;;;;;8384053;28;20029;-77
2023/08/09 04:47:43;;;;;;;3.42;2.42;;;13.20;99.90;;;;;;8361519;28;20564;-79
2023/08/09 04:51:44;;;;;;;4.60;2.70;;;13.20;99.90;;;;;;8382615;28;20485;-79
2023/08/09 04:55:45;;;;;;;4.78;2.45;;;13.20;99.90;;;;;;8365277;28;20016;-79
2023/08/09 04:59:45;;;;;;;7.25;2.75;;;13.20;99.90;;;;;;8369134;28;20447;-79
2023/08/09 05:03:46;;;;;;;4.70;3.10;;;13.20;99.90;;;;;;8370650;28;20122;-78
2023/08/09 05:07:46;;;;;;;4.38;3.08;;;13.10;99.90;;;;;;8361804;28;20493;-79
2023/08/09 05:11:47;;;;;;;6.63;2.05;;;13.10;99.90;;;;;;8363022;28;20028;-79
2023/08/09 05:15:47;;;;;;;3.38;1.67;;;13.10;99.90;;;;;;8370086;28;20025;-80
2023/08/09 05:19:48;;;;;;;3.40;1.60;;;13.30;99.90;;;;;;8359309;28;20462;-78
2023/08/09 05:23:48;;;;;;;2.80;1.48;;;13.30;99.90;;;;;;8354637;28;20035;-79
2023/08/09 05:27:49;;;;;;;2.40;1.67;;;13.30;99.90;;;;;;8358434;28;20054;-80
2023/08/09 05:31:49;;;;;;;3.70;1.85;;;13.30;99.90;;;;;;8356729;28;20017;-79
2023/08/09 05:35:50;;;;;;;2.80;1.90;;;13.40;99.90;;;;;;8357995;28;20059;-80
2023/08/09 05:39:50;;;;;;;2.40;1.60;;;13.60;99.90;;;;;;8359292;28;20124;-80
2023/08/09 05:43:51;;;;;;;3.33;1.98;;;13.80;99.90;;;;;;8364356;28;20023;-80
2023/08/09 05:47:51;;;;;;;2.15;1.58;;;13.90;99.90;;;;;;8371966;28;20119;-79
2023/08/09 05:51:53;;;;;;;3.88;1.95;;;14.00;99.90;;;;;;8362641;28;20050;-79
2023/08/09 05:55:54;;;;;;;3.80;1.92;;;14.20;99.90;;;;;;8381714;28;20033;-78
2023/08/09 05:59:54;;;;;;;3.10;1.60;;;14.20;99.90;;;;;;8344486;28;20024;-78
2023/08/09 06:03:55;;;;;;;3.97;2.10;;;14.20;99.90;;;;;;8354570;28;20070;-80
2023/08/09 06:07:56;;;;;;;2.13;1.63;;;14.30;99.90;;;;;;8367107;28;20082;-80
2023/08/09 06:11:56;;;;;;;2.28;1.55;;;14.40;99.90;;;;;;8348804;28;20496;-80
2023/08/09 06:15:58;;;;;;;3.75;2.00;;;14.40;99.90;;;;;;8353752;28;20082;-80
2023/08/09 06:19:59;;;;;;;2.63;2.10;;;14.50;99.90;;;;;;8345491;28;20548;-80
2023/08/09 06:23:59;;;;;;;3.47;1.85;;;14.50;99.90;;;;;;8365733;28;20024;-81
2023/08/09 06:28:00;;;;;;;4.03;2.10;;;14.40;99.90;;;;;;8354280;28;20078;-80
2023/08/09 06:32:01;;;;;;;2.63;1.90;;;14.50;99.90;;;;;;8349832;28;20024;-78
2023/08/09 06:36:01;;;;;;;3.70;2.20;;;14.70;99.90;;;;;;8350807;28;20195;-79
2023/08/09 06:40:06;;;;;;;3.17;1.88;;;14.90;99.90;;;;;;8355605;28;20087;-80
2023/08/09 06:44:07;;;;;;;6.90;1.80;;;15.00;99.90;;;;;;8349379;28;20520;-79
2023/08/09 06:48:08;;;;;;;5.97;2.47;;;15.10;99.90;;;;;;8350480;28;20032;-79
2023/08/09 06:52:08;;;;;;;4.18;2.35;;;15.20;99.90;;;;;;8374253;28;20485;-79
2023/08/09 06:56:09;;;;;;;2.70;2.28;;;15.40;99.90;;;;;;8349751;28;20028;-80
2023/08/09 07:00:16;;;;;;;3.10;2.35;;;15.60;99.90;;;;;;8373837;28;20086;-79
2023/08/09 07:04:18;;;;;;;4.60;2.28;;;16.00;99.90;;;;;;8352843;28;20118;-80
2023/08/09 07:08:21;;;;;;;4.45;2.40;;;16.20;99.90;;;;;;8349676;28;20040;-80
2023/08/09 07:12:21;;;;;;;3.10;1.95;;;16.40;99.90;;;;;;8355825;28;20067;-80
2023/08/09 07:16:22;;;;;;;5.80;2.42;;;16.60;99.90;;;;;;8354982;28;20082;-80
2023/08/09 07:20:22;;;;;;;3.03;2.20;;;16.50;99.90;;;;;;8350920;28;20029;-81
2023/08/09 07:24:23;;;;;;;5.53;2.13;;;16.50;99.90;;;;;;8355547;28;20505;-78
2023/08/09 07:28:24;;;;;;;6.63;2.38;;;16.50;99.90;;;;;;8369831;28;20040;-80
2023/08/09 07:32:25;;;;;;;2.85;1.88;;;16.80;99.90;;;;;;8352570;28;20021;-79
2023/08/09 07:36:25;;;;;;;4.63;2.13;;;16.90;99.90;;;;;;8374480;28;20396;-81
2023/08/09 07:40:26;;;;;;;3.30;1.95;;;17.10;99.90;;;;;;8378137;28;20040;-79
2023/08/09 07:44:26;;;;;;;13.38;2.33;;;17.60;99.90;;;;;;8383075;28;20036;-80
2023/08/09 07:48:27;;;;;;;2.90;1.80;;;18.10;99.90;;;;;;8364847;28;20397;-81
2023/08/09 07:52:29;;;;;;;3.95;2.05;;;18.20;99.90;;;;;;8353981;28;20493;-80
2023/08/09 07:56:29;;;;;;;3.78;1.65;;;17.80;99.90;;;;;;8374410;28;20025;-81
2023/08/09 08:00:30;;;;;;;3.10;1.90;;;17.30;99.90;;;;;;8350216;28;20079;-80
2023/08/09 08:04:31;;;;;;;96.78;8.02;;;17.00;99.90;;;;;;8384946;28;20028;-79
2023/08/09 08:08:31;;;;;;;2.85;1.75;;;16.80;99.90;;;;;;8368615;28;20032;-81
2023/08/09 08:12:32;;;;;;;3.38;1.90;;;16.90;99.90;;;;;;8369280;28;20032;-80
2023/08/09 08:16:32;;;;;;;3.40;1.75;;;16.90;99.90;;;;;;8365873;28;20452;-81
2023/08/09 08:20:33;;;;;;;2.03;1.70;;;17.10;99.90;;;;;;8384678;28;20043;-80
2023/08/09 08:24:33;;;;;;;8.38;1.80;;;17.00;99.90;;;;;;8388042;28;20033;-80
2023/08/09 08:28:34;;;;;;;2.45;1.90;;;17.10;99.90;;;;;;8358069;28;20086;-78
2023/08/09 08:32:36;;;;;;;2.92;1.88;;;16.90;99.90;;;;;;8377955;28;20025;-80
2023/08/09 08:36:38;;;;;;;3.63;1.70;;;16.80;99.90;;;;;;8366644;28;20032;-79
2023/08/09 08:40:38;;;;;;;2.72;1.73;;;16.50;99.90;;;;;;8359434;28;20032;-80
2023/08/09 08:44:39;;;;;;;5.63;1.85;;;16.50;99.90;;;;;;8389856;28;20507;-80
2023/08/09 08:48:46;;;;;;;3.88;1.90;;;16.50;99.90;;;;;;8385124;28;20455;-79
2023/08/09 08:52:48;;;;;;;3.45;1.77;;;16.50;99.90;;;;;;8377233;28;20548;-80
2023/08/09 08:56:49;;;;;;;2.58;1.58;;;16.50;99.90;;;;;;8374319;28;20107;-80
2023/08/09 09:00:50;;;;;;;3.33;1.80;;;16.40;99.90;;;;;;8382288;28;20497;-80
2023/08/09 09:04:50;;;;;;;3.03;1.85;;;16.30;99.90;;;;;;8371819;28;20028;-80
2023/08/09 09:08:59;;;;;;;3.00;1.73;;;16.40;99.90;;;;;;8369456;28;20116;-81
2023/08/09 09:13:01;;;;;;;2.70;1.57;;;16.40;99.90;;;;;;8357252;28;20037;-80
2023/08/09 09:17:01;;;;;;;2.58;1.60;;;16.50;99.90;;;;;;8361474;28;20772;-81
2023/08/09 09:21:02;;;;;;;2.15;1.80;;;16.50;99.90;;;;;;8366965;28;20028;-80
2023/08/09 09:25:10;;;;;;;3.05;1.50;;;16.50;99.90;;;;;;8375841;28;20017;-81
2023/08/09 09:29:11;;;;;;;2.92;1.58;;;16.70;99.90;;;;;;8373221;28;20074;-81
2023/08/09 09:33:12;;;;;;;2.13;1.63;;;16.70;99.90;;;;;;8365288;28;20039;-80
2023/08/09 09:37:17;;;;;;;2.67;1.67;;;17.00;99.90;;;;;;8375226;28;20025;-81
2023/08/09 09:41:17;;;;;;;3.38;1.80;;;17.50;99.90;;;;;;8366761;28;20108;-81
2023/08/09 09:45:22;;;;;;;5.75;1.95;;;17.60;99.90;;;;;;8359187;28;20028;-81
2023/08/09 09:49:24;;;;;;;4.13;1.70;;;17.80;99.90;;;;;;8374768;28;20082;-81
2023/08/09 09:53:24;;;;;;;2.10;1.55;;;18.00;99.90;;;;;;8373131;28;20481;-80
2023/08/09 09:57:25;;;;;;;3.80;1.88;;;18.30;99.90;;;;;;8361546;28;20047;-81
2023/08/09 10:01:27;;;;;;;2.67;1.63;;;18.80;99.90;;;;;;8364102;28;20393;-81
2023/08/09 10:05:36;;;;;;;2.58;2.00;;;19.50;99.90;;;;;;8373004;28;20485;-82
2023/08/09 10:09:38;;;;;;;2.80;1.85;;;19.90;99.90;;;;;;8366062;28;20094;-81
2023/08/09 10:13:40;;;;;;;2.95;1.67;;;20.30;99.90;;;;;;8375216;28;20028;-80
2023/08/09 10:17:42;;;;;;;2.83;1.83;;;20.00;99.90;;;;;;8366029;28;20404;-81
2023/08/09 10:21:42;;;;;;;5.22;1.70;;;20.20;99.90;;;;;;8372867;28;20024;-81
2023/08/09 10:25:46;;;;;;;3.80;1.67;;;20.30;99.90;;;;;;8371840;28;20040;-81
2023/08/09 10:29:57;;;;;;;3.03;1.80;;;20.10;99.90;;;;;;8375810;28;20031;-81
2023/08/09 10:34:06;;;;;;;3.72;1.63;;;19.90;99.90;;;;;;8357414;28;20166;-81
2023/08/09 10:38:07;;;;;;;4.60;2.00;;;20.00;99.90;;;;;;8369356;28;20398;-80
2023/08/09 10:42:09;;;;;;;2.80;1.65;;;20.10;99.90;;;;;;8377680;28;20021;-80
2023/08/09 10:46:40;;;;;;;3.45;2.00;;;20.10;99.90;;;;;;8386268;28;20041;-81
2023/08/09 10:50:40;;;;;;;3.58;1.80;;;20.40;99.90;;;;;;8350580;28;20044;-81
2023/08/09 10:54:41;;;;;;;2.33;1.85;;;20.50;99.90;;;;;;8357268;28;20055;-81
2023/08/09 10:58:44;;;;;;;2.65;1.80;;;20.80;99.90;;;;;;8381611;28;20044;-81
2023/08/09 11:02:55;;;;;;;2.45;1.85;;;21.00;99.90;;;;;;8362212;28;20025;-82
2023/08/09 11:06:56;;;;;;;3.25;1.50;;;20.80;99.90;;;;;;8370134;28;20052;-81
2023/08/09 11:10:56;;;;;;;5.20;1.90;;;21.10;99.90;;;;;;8361557;28;20044;-80
2023/08/09 11:14:57;;;;;;;2.85;1.77;;;21.30;99.90;;;;;;8378920;28;20025;-81
2023/08/09 11:19:03;;;;;;;2.78;1.75;;;21.40;99.90;;;;;;8360374;28;20052;-81
2023/08/09 11:23:04;;;;;;;4.35;1.83;;;21.40;99.90;;;;;;8376571;28;20025;-81
2023/08/09 11:27:04;;;;;;;4.95;1.90;;;21.70;99.90;;;;;;8355001;28;20029;-81
2023/08/09 11:31:06;;;;;;;114.53;9.65;;;22.00;99.90;;;;;;8350410;28;20399;-81
2023/08/09 11:35:09;;;;;;;5.75;2.20;;;22.20;99.90;;;;;;8379663;28;20024;-81
2023/08/09 11:39:12;;;;;;;4.07;1.80;;;22.70;99.90;;;;;;8364959;28;20033;-82
2023/08/09 11:43:14;;;;;;;2.90;1.90;;;23.20;99.90;;;;;;8386005;28;20505;-82
2023/08/09 11:47:15;;;;;;;2.53;1.88;;;23.70;99.90;;;;;;8374438;28;20456;-81
2023/08/09 11:51:20;;;;;;;3.15;2.00;;;23.60;99.90;;;;;;8360815;28;20047;-82
2023/08/09 11:55:25;;;;;;;5.50;1.63;;;23.80;99.90;;;;;;8366255;28;20029;-82
2023/08/09 11:59:26;;;;;;;4.50;2.13;;;24.00;99.90;;;;;;8395698;28;20016;-81
2023/08/09 12:03:27;;;;;;;3.65;1.85;;;23.80;99.90;;;;;;8380828;28;20032;-82
2023/08/09 12:07:27;;;;;;;3.58;1.80;;;23.80;99.90;;;;;;8393033;28;20029;-80
2023/08/09 12:15:31;;;;;;;3.47;1.63;;;23.10;99.90;;;;;;8572331;22;20521;-79
2023/08/09 12:19:33;;;;;;;5.00;1.70;;;23.20;99.90;;;;;;8356035;28;20087;-80
2023/08/09 12:23:37;;;;;;;2.75;1.60;;;23.70;99.90;;;;;;8356003;28;20024;-80
2023/08/09 12:27:39;;;;;;;4.72;1.73;;;23.60;99.90;;;;;;8359550;28;20029;-79
2023/08/09 12:31:40;;;;;;;4.15;1.80;;;23.70;99.90;;;;;;8380281;28;20060;-79
2023/08/09 12:35:40;;;;;;;2.10;1.80;;;23.90;99.90;;;;;;8364005;28;20374;-80
2023/08/09 12:39:41;;;;;;;3.60;1.92;;;24.10;99.90;;;;;;8371658;28;20036;-81
2023/08/09 12:43:41;;;;;;;4.45;1.67;;;24.40;99.90;;;;;;8365141;28;20031;-78
2023/08/09 12:47:42;;;;;;;3.22;1.70;;;24.60;99.90;;;;;;8370966;28;20029;-78
2023/08/09 12:51:42;;;;;;;3.55;1.60;;;24.60;99.90;;;;;;8375229;28;20029;-80
2023/08/09 12:55:43;;;;;;;4.57;1.67;;;24.50;99.90;;;;;;8369868;28;20057;-79
2023/08/09 12:59:44;;;;;;;6.13;1.70;;;23.60;99.90;;;;;;8359572;28;20285;-80
2023/08/09 13:03:47;;;;;;;3.90;1.80;;;23.60;99.90;;;;;;8391965;28;20029;-79
2023/08/09 13:07:49;;;;;;;3.33;2.08;;;23.80;99.90;;;;;;8370059;28;20508;-79
2023/08/09 13:12:09;;;;;;;2.90;1.52;;;23.60;99.90;;;;;;8379587;28;20112;-79
2023/08/09 13:16:10;;;;;;;3.33;1.83;;;23.00;99.90;;;;;;8349760;28;20050;-79
2023/08/09 13:20:12;;;;;;;2.40;1.67;;;23.10;99.90;;;;;;8369058;28;20173;-80
2023/08/09 13:24:12;;;;;;;2.03;1.63;;;23.20;99.90;;;;;;8379575;28;20043;-79
2023/08/09 13:28:13;;;;;;;2.40;1.90;;;22.90;99.90;;;;;;8353897;28;20069;-79
2023/08/09 13:32:13;;;;;;;6.43;1.92;;;22.50;99.90;;;;;;8354436;28;20382;-80
2023/08/09 13:36:14;;;;;;;3.08;2.00;;;22.30;99.90;;;;;;8355136;28;20121;-80
2023/08/09 13:40:15;;;;;;;3.72;1.90;;;22.40;99.90;;;;;;8356547;28;20025;-80
2023/08/09 13:44:15;;;;;;;3.45;1.95;;;23.00;99.90;;;;;;8355407;28;20036;-80
2023/08/09 13:48:16;;;;;;;2.05;1.80;;;23.30;99.90;;;;;;8359865;28;20036;-80
2023/08/09 13:52:16;;;;;;;4.53;2.03;;;23.40;99.90;;;;;;8376383;28;20056;-79
2023/08/09 13:56:17;;;;;;;6.10;1.77;;;23.20;99.90;;;;;;8357940;28;20040;-80
2023/08/09 14:00:18;;;;;;;3.97;1.90;;;22.80;99.90;;;;;;8350866;28;20028;-80
2023/08/09 14:04:18;;;;;;;4.63;2.05;;;21.90;99.90;;;;;;8359811;28;20032;-81
2023/08/09 14:08:19;;;;;;;2.90;1.90;;;21.20;99.90;;;;;;8352239;28;20099;-80
2023/08/09 14:12:20;;;;;;;1.92;1.70;;;20.60;99.90;;;;;;8376236;28;20095;-80
2023/08/09 14:16:20;;;;;;;8.18;2.00;;;20.60;99.90;;;;;;8352183;28;20029;-80
2023/08/09 14:20:22;;;;;;;2.88;1.85;;;21.00;99.90;;;;;;8355704;28;20036;-79
2023/08/09 14:24:23;;;;;;;3.42;1.90;;;21.60;99.90;;;;;;8360744;28;20029;-79
2023/08/09 14:28:23;;;;;;;3.03;1.80;;;21.80;99.90;;;;;;8368913;28;20033;-79
2023/08/09 14:32:24;;;;;;;5.20;1.75;;;21.70;99.90;;;;;;8358592;28;20067;-80
2023/08/09 14:36:25;;;;;;;4.50;1.80;;;21.70;99.90;;;;;;8359737;28;20017;-80
2023/08/09 14:40:26;;;;;;;4.47;2.00;;;21.70;99.90;;;;;;8349895;28;20520;-80
2023/08/09 14:44:27;;;;;;;2.80;1.70;;;21.60;99.90;;;;;;8354505;28;20033;-80
2023/08/09 14:48:28;;;;;;;3.22;2.05;;;21.60;99.90;;;;;;8370021;28;20507;-79
2023/08/09 14:52:28;;;;;;;4.32;1.92;;;21.50;99.90;;;;;;8362356;28;20025;-79
2023/08/09 14:56:29;;;;;;;3.92;1.80;;;21.30;99.90;;;;;;8380099;28;20104;-81
2023/08/09 15:00:32;;;;;;;3.42;2.00;;;21.40;99.90;;;;;;8352339;28;20021;-79
2023/08/09 15:04:34;;;;;;;3.22;2.15;;;21.30;99.90;;;;;;8367353;28;20029;-81
2023/08/09 15:08:35;;;;;;;5.60;1.98;;;21.20;99.90;;;;;;8348201;28;20060;-80
2023/08/09 15:12:35;;;;;;;3.80;1.85;;;21.00;99.90;;;;;;8392346;28;20024;-79
2023/08/09 15:16:37;;;;;;;2.05;1.42;;;20.90;99.90;;;;;;8363145;28;20435;-79
2023/08/09 15:20:38;;;;;;;3.63;1.60;;;21.00;99.90;;;;;;8361657;28;20036;-77
2023/08/09 15:24:38;;;;;;;3.95;1.63;;;21.00;99.90;;;;;;8369225;28;20060;-80
2023/08/09 15:28:39;;;;;;;3.17;1.58;;;20.80;99.90;;;;;;8352197;28;20519;-80
2023/08/09 15:32:39;;;;;;;1.80;1.50;;;20.60;99.90;;;;;;8359033;28;20052;-80
2023/08/09 15:36:40;;;;;;;5.85;1.75;;;20.30;99.90;;;;;;8345591;28;20021;-79
2023/08/09 15:40:40;;;;;;;4.20;1.77;;;20.20;99.90;;;;;;8371464;28;20031;-80
2023/08/09 15:44:41;;;;;;;4.28;1.50;;;20.40;99.90;;;;;;8365429;28;20040;-78
2023/08/09 15:48:41;;;;;;;3.53;1.58;;;20.40;99.90;;;;;;8362619;28;20520;-80
2023/08/09 15:52:42;;;;;;;1.83;1.40;;;20.40;99.90;;;;;;8369646;28;20547;-80
2023/08/09 15:56:42;;;;;;;2.67;1.50;;;20.30;99.90;;;;;;8359757;28;20100;-80
2023/08/09 16:00:43;;;;;;;2.88;1.83;;;20.00;99.90;;;;;;8346004;28;20021;-78
2023/08/09 16:04:43;;;;;;;2.72;1.80;;;19.80;99.90;;;;;;8367612;28;20104;-79
2023/08/09 16:08:44;;;;;;;2.22;1.73;;;19.80;99.90;;;;;;8359516;28;20028;-79
2023/08/09 16:12:45;;;;;;;2.65;1.80;;;19.80;99.90;;;;;;8374372;28;20040;-80
2023/08/09 16:16:45;;;;;;;2.85;1.67;;;19.80;99.90;;;;;;8366560;28;20392;-80
2023/08/09 16:20:46;;;;;;;3.45;1.88;;;19.60;99.90;;;;;;8359635;28;20382;-78
2023/08/09 16:24:46;;;;;;;6.72;3.00;;;19.50;99.90;;;;;;8368269;28;20028;-79
2023/08/09 16:28:48;;;;;;;1.90;1.70;;;19.60;99.90;;;;;;8360990;28;20037;-78
2023/08/09 16:32:48;;;;;;;2.97;1.63;;;19.60;99.90;;;;;;8353664;28;20017;-79
2023/08/09 16:36:49;;;;;;;3.85;1.70;;;19.60;99.90;;;;;;8360473;28;20028;-80
2023/08/09 16:40:49;;;;;;;2.72;1.70;;;19.60;99.90;;;;;;8351188;28;20488;-80
2023/08/09 16:44:50;;;;;;;3.80;1.63;;;19.60;99.90;;;;;;8352297;28;20017;-80
2023/08/09 16:48:52;;;;;;;3.40;1.80;;;19.40;99.90;;;;;;8359570;28;20024;-80
2023/08/09 16:52:54;;;;;;;3.22;1.88;;;19.40;99.90;;;;;;8358190;28;20404;-80
2023/08/09 16:56:54;;;;;;;1.90;1.42;;;19.30;99.90;;;;;;8378067;28;20009;-80
2023/08/09 17:00:56;;;;;;;3.00;1.80;;;19.20;99.90;;;;;;8384757;28;20025;-80
2023/08/09 17:04:56;;;;;;;2.40;1.63;;;18.90;99.90;;;;;;8367073;28;20028;-80
2023/08/09 17:08:57;;;;;;;2.72;1.90;;;18.80;99.90;;;;;;8369041;28;20275;-80
2023/08/09 17:12:57;;;;;;;2.28;1.70;;;18.70;99.90;;;;;;8352554;28;20029;-80
2023/08/09 17:16:58;;;;;;;3.25;1.80;;;18.70;99.90;;;;;;8367344;28;20498;-80
2023/08/09 17:20:59;;;;;;;3.05;1.60;;;19.00;99.90;;;;;;8366264;28;20072;-80
2023/08/09 17:25:00;;;;;;;3.70;1.98;;;19.00;99.90;;;;;;8384628;28;20060;-79
2023/08/09 17:29:00;;;;;;;3.63;1.60;;;19.10;99.90;;;;;;8368580;28;20029;-79
2023/08/09 17:33:01;;;;;;;2.63;2.17;;;18.70;99.90;;;;;;8357151;28;20508;-80
2023/08/09 17:37:01;;;;;;;4.90;1.98;;;18.60;99.90;;;;;;8351681;28;20071;-81
2023/08/09 17:41:02;;;;;;;4.32;1.90;;;18.40;99.90;;;;;;8350831;28;20086;-80
2023/08/09 17:45:03;;;;;;;3.88;2.05;;;18.60;99.90;;;;;;8359477;28;20446;-81
2023/08/09 17:49:04;;;;;;;3.85;2.08;;;18.40;99.90;;;;;;8353113;28;20083;-81
2023/08/09 17:53:05;;;;;;;2.72;1.80;;;18.00;99.90;;;;;;8377703;28;20477;-78
2023/08/09 17:57:06;;;;;;;3.88;1.92;;;17.90;99.90;;;;;;8370676;28;20023;-80
2023/08/09 18:01:06;;;;;;;4.25;2.15;;;17.80;99.90;;;;;;8366552;28;20036;-80
2023/08/09 18:05:09;;;;;;;3.72;2.20;;;17.70;99.90;;;;;;8394647;28;20084;-80
2023/08/09 18:09:10;;;;;;;3.33;2.00;;;17.50;99.90;;;;;;8356237;28;20070;-80
2023/08/09 18:13:10;;;;;;;2.85;1.98;;;17.60;99.90;;;;;;8376543;22;20049;-82
2023/08/09 18:17:11;;;;;;;2.60;1.98;;;17.40;99.90;;;;;;8401611;28;20065;-82
2023/08/09 18:21:11;;;;;;;2.60;1.95;;;17.30;99.90;;;;;;8401377;28;20035;-82
2023/08/09 18:25:12;;;;;;;3.67;2.30;;;17.30;99.90;;;;;;8363598;28;20102;-81
2023/08/09 18:29:13;;;;;;;5.57;2.00;;;17.40;99.90;;;;;;8385448;28;20052;-82
2023/08/09 18:33:14;;;;;;;3.10;2.20;;;17.40;99.90;;;;;;8358446;28;20036;-82
2023/08/09 18:37:14;;;;;;;2.75;1.88;;;17.20;99.90;;;;;;8359532;28;20033;-82
2023/08/09 18:41:15;;;;;;;3.38;2.17;;;17.00;99.90;;;;;;8362465;28;20083;-82
2023/08/09 18:45:15;;;;;;;3.20;2.10;;;16.90;99.90;;;;;;8360454;28;20033;-82
2023/08/09 18:49:16;;;;;;;4.53;2.10;;;16.80;99.90;;;;;;8369954;28;20032;-82
2023/08/09 18:53:17;;;;;;;3.17;2.20;;;16.60;99.90;;;;;;8377724;28;20408;-82
2023/08/09 18:57:17;;;;;;;2.47;2.00;;;16.40;99.90;;;;;;8384849;28;20549;-81
2023/08/09 19:01:18;;;;;;;6.40;2.30;;;16.20;99.90;;;;;;8356763;28;20032;-81
2023/08/09 19:05:18;;;;;;;3.08;2.42;;;15.90;99.90;;;;;;8367444;28;20550;-81
2023/08/09 19:09:19;;;;;;;2.78;2.15;;;15.80;99.90;;;;;;8377119;28;20527;-82
2023/08/09 19:13:19;;;;;;;3.30;2.65;;;15.70;99.90;;;;;;8367328;28;20029;-81
2023/08/09 19:17:20;;;;;;;5.15;2.50;;;15.40;99.90;;;;;;8344360;28;20013;-81
2023/08/09 19:21:22;;;;;;;5.05;2.58;;;15.20;99.90;;;;;;8361788;28;20013;-81
2023/08/09 19:25:23;;;;;;;4.57;2.70;;;15.10;99.90;;;;;;8374157;28;20023;-81
2023/08/09 19:29:24;;;;;;;4.80;2.70;;;15.00;99.90;;;;;;8379900;28;20028;-81
2023/08/09 19:33:28;;;;;;;3.20;2.85;;;15.10;99.90;;;;;;8370284;28;20032;-82
2023/08/09 19:37:29;;;;;;;5.38;3.08;;;15.10;99.90;;;;;;8367253;28;20017;-82
2023/08/09 19:41:30;;;;;;;4.15;3.30;;;15.10;99.90;;;;;;8342761;28;20104;-81
2023/08/09 19:45:31;;;;;;;4.88;3.20;;;15.00;99.90;;;;;;8369262;28;20021;-81
2023/08/09 19:49:31;;;;;;;5.47;3.47;;;15.00;99.90;;;;;;8376099;28;20436;-81
2023/08/09 19:53:32;;;;;;;6.20;3.45;;;14.90;99.90;;;;;;8356421;28;20028;-82
2023/08/09 19:57:32;;;;;;;7.28;3.50;;;14.80;99.90;;;;;;8358702;28;20024;-82
2023/08/09 20:01:33;;;;;;;6.20;3.90;;;14.60;99.90;;;;;;8381347;28;20055;-81
2023/08/09 20:05:34;;;;;;;7.43;4.20;;;14.60;99.90;;;;;;8377706;28;20028;-80
2023/08/09 20:09:34;;;;;;;10.45;4.30;;;14.40;99.90;;;;;;8358517;28;20382;-81
2023/08/09 20:13:35;;;;;;;5.70;4.07;;;14.40;99.90;;;;;;8348972;28;20021;-81
2023/08/09 20:17:36;;;;;;;5.75;4.25;;;14.30;99.90;;;;;;8360257;28;20409;-81
2023/08/09 20:21:37;;;;;;;6.43;3.40;;;14.20;99.90;;;;;;8368581;28;20105;-80
2023/08/09 20:25:37;;;;;;;5.55;3.33;;;14.30;99.90;;;;;;8365655;28;20024;-81
2023/08/09 20:29:38;;;;;;;6.03;3.65;;;14.40;99.90;;;;;;8384290;28;20574;-81
2023/08/09 20:33:39;;;;;;;4.85;3.60;;;14.30;99.90;;;;;;8363492;28;20020;-81
2023/08/09 20:37:40;;;;;;;5.60;3.55;;;14.50;99.90;;;;;;8364991;28;20017;-81
2023/08/09 20:41:41;;;;;;;4.95;3.60;;;14.50;99.90;;;;;;8351944;28;20036;-81
2023/08/09 20:45:41;;;;;;;4.28;3.03;;;14.50;99.90;;;;;;8371624;28;20099;-79
2023/08/09 20:49:42;;;;;;;6.63;3.17;;;14.50;99.90;;;;;;8391917;28;20017;-81
2023/08/09 20:53:42;;;;;;;5.78;2.70;;;14.70;99.90;;;;;;8363907;28;20016;-81
2023/08/09 20:57:43;;;;;;;6.90;2.88;;;14.80;99.90;;;;;;8370165;28;20017;-81